createdAt,value
2023-05-18T00:01:03.799Z,0
2023-05-18T00:06:03.775Z,0
2023-05-18T00:11:03.744Z,0
2023-05-18T00:16:03.827Z,0
2023-05-18T00:21:03.791Z,0
2023-05-18T00:26:03.757Z,0
2023-05-18T00:31:03.799Z,0
2023-05-18T00:36:03.769Z,0
2023-05-18T00:41:03.743Z,0
2023-05-18T00:46:03.810Z,0
2023-05-18T00:51:03.769Z,0
2023-05-18T00:56:03.773Z,0
2023-05-18T01:01:03.770Z,0
2023-05-18T01:06:03.784Z,0
2023-05-18T01:11:04.034Z,0
2023-05-18T01:16:03.807Z,0
2023-05-18T01:21:03.980Z,0
2023-05-18T01:26:03.792Z,0
2023-05-18T01:31:03.836Z,0
2023-05-18T01:36:03.772Z,0
2023-05-18T01:41:03.754Z,0
2023-05-18T01:46:03.766Z,0
2023-05-18T01:51:03.794Z,0
2023-05-18T01:56:03.813Z,0
2023-05-18T02:01:03.790Z,0
2023-05-18T02:06:03.823Z,0
2023-05-18T02:11:03.770Z,0
2023-05-18T02:16:03.852Z,0
2023-05-18T02:21:03.789Z,0
2023-05-18T02:26:03.820Z,0
2023-05-18T02:31:03.786Z,0
2023-05-18T02:36:03.799Z,0
2023-05-18T02:41:03.759Z,0
2023-05-18T02:46:03.741Z,0
2023-05-18T02:51:03.816Z,0
2023-05-18T02:56:03.774Z,0
2023-05-18T03:01:03.810Z,0
2023-05-18T03:06:03.782Z,0
2023-05-18T03:11:03.809Z,0
2023-05-18T03:16:03.780Z,0
2023-05-18T03:21:03.771Z,0
2023-05-18T03:26:03.855Z,0
2023-05-18T03:31:04.014Z,0
2023-05-18T03:36:03.766Z,0
2023-05-18T03:41:03.793Z,0
2023-05-18T03:46:03.868Z,0
2023-05-18T03:51:03.814Z,0
2023-05-18T03:56:03.788Z,0
2023-05-18T04:01:03.765Z,265
2023-05-18T04:06:03.804Z,266
2023-05-18T04:11:03.766Z,267
2023-05-18T04:16:03.852Z,267
2023-05-18T04:21:03.844Z,268
2023-05-18T04:26:03.785Z,269
2023-05-18T04:31:03.804Z,271
2023-05-18T04:36:03.773Z,271
2023-05-18T04:41:03.780Z,272
2023-05-18T04:46:03.946Z,275
2023-05-18T04:51:03.797Z,275
2023-05-18T04:56:03.810Z,274
2023-05-18T05:01:03.812Z,277
2023-05-18T05:06:03.766Z,277
2023-05-18T05:11:03.820Z,277
2023-05-18T05:16:03.782Z,278
2023-05-18T05:21:03.829Z,280
2023-05-18T05:26:03.792Z,280
2023-05-18T05:31:03.791Z,279
2023-05-18T05:36:03.803Z,281
2023-05-18T05:41:03.995Z,283
2023-05-18T05:46:03.819Z,282
2023-05-18T05:51:03.806Z,283
2023-05-18T05:56:03.807Z,282
2023-05-18T06:01:03.843Z,285
2023-05-18T06:06:03.812Z,285
2023-05-18T06:11:03.797Z,286
2023-05-18T06:16:03.893Z,288
2023-05-18T06:21:03.833Z,288
2023-05-18T06:26:03.808Z,288
2023-05-18T06:31:03.784Z,290
2023-05-18T06:36:03.839Z,290
2023-05-18T06:41:03.813Z,292
2023-05-18T06:46:03.820Z,295
2023-05-18T06:51:03.856Z,295
2023-05-18T06:56:03.856Z,297
2023-05-18T07:01:03.824Z,296
2023-05-18T07:06:03.804Z,298
2023-05-18T07:11:03.859Z,300
2023-05-18T07:16:03.812Z,302
2023-05-18T07:21:03.792Z,305
2023-05-18T07:26:03.784Z,307
2023-05-18T07:31:03.822Z,314
2023-05-18T07:36:03.845Z,320
2023-05-18T07:41:03.820Z,324
2023-05-18T07:46:03.802Z,317
2023-05-18T07:51:03.846Z,337
2023-05-18T07:56:03.820Z,350
2023-05-18T08:01:03.866Z,349
2023-05-18T08:06:03.833Z,346
2023-05-18T08:11:03.854Z,354
2023-05-18T08:16:11.572Z,352
2023-05-18T08:21:03.833Z,378
2023-05-18T08:26:03.838Z,386
2023-05-18T08:31:03.898Z,394
2023-05-18T08:36:03.840Z,404
2023-05-18T08:41:03.904Z,387
2023-05-18T08:46:03.824Z,396
2023-05-18T08:51:03.844Z,409
2023-05-18T08:56:03.892Z,460
2023-05-18T09:01:03.911Z,487
2023-05-18T09:06:03.792Z,476
2023-05-18T09:11:03.864Z,580
2023-05-18T09:16:03.927Z,1144
2023-05-18T09:21:03.867Z,620
2023-05-18T09:26:03.849Z,504
2023-05-18T09:31:03.831Z,1481
2023-05-18T09:36:03.846Z,498
2023-05-18T09:41:03.903Z,1378
2023-05-18T09:46:03.802Z,413
2023-05-18T09:51:03.843Z,416
2023-05-18T09:56:03.871Z,432
2023-05-18T10:01:03.897Z,511
2023-05-18T10:06:03.872Z,1173
2023-05-18T10:11:03.916Z,417
2023-05-18T10:16:03.896Z,1685
2023-05-18T10:21:03.841Z,525
2023-05-18T10:26:03.850Z,418
2023-05-18T10:31:03.968Z,392
2023-05-18T10:36:03.896Z,530
2023-05-18T10:41:03.822Z,1408
2023-05-18T10:46:03.910Z,1814
2023-05-18T10:51:03.912Z,760
2023-05-18T10:56:03.876Z,1927
2023-05-18T11:01:03.878Z,1725
2023-05-18T11:06:03.870Z,1635
2023-05-18T11:11:03.893Z,393
2023-05-18T11:16:03.873Z,385
2023-05-18T11:21:03.884Z,347
2023-05-18T11:26:03.860Z,336
2023-05-18T11:31:03.883Z,344
2023-05-18T11:36:03.910Z,350
2023-05-18T11:41:03.917Z,335
2023-05-18T11:46:03.860Z,333
2023-05-18T11:51:03.886Z,360
2023-05-18T11:56:04.067Z,321
2023-05-18T12:01:03.895Z,313
2023-05-18T12:06:03.897Z,334
2023-05-18T12:11:03.911Z,321
2023-05-18T12:16:03.924Z,308
2023-05-18T12:21:04.067Z,307
2023-05-18T12:26:03.864Z,305
2023-05-18T12:31:03.877Z,306
2023-05-18T12:36:03.860Z,305
2023-05-18T12:41:03.911Z,305
2023-05-18T12:46:04.029Z,319
2023-05-18T12:51:03.915Z,305
2023-05-18T12:56:03.890Z,314
2023-05-18T13:01:03.891Z,320
2023-05-18T13:06:03.934Z,301
2023-05-18T13:11:13.301Z,302
2023-05-18T13:16:03.918Z,301
2023-05-18T13:21:03.959Z,303
2023-05-18T13:26:03.906Z,310
2023-05-18T13:31:03.975Z,297
2023-05-18T13:36:03.909Z,293
2023-05-18T13:41:03.918Z,291
2023-05-18T13:46:04.002Z,295
2023-05-18T13:51:03.976Z,282
2023-05-18T13:56:03.915Z,284
2023-05-18T14:01:04.036Z,284
2023-05-18T14:06:03.912Z,296
2023-05-18T14:11:04.187Z,310
2023-05-18T14:16:03.935Z,292
2023-05-18T14:21:03.942Z,292
2023-05-18T14:26:04.101Z,306
2023-05-18T14:31:03.930Z,288
2023-05-18T14:36:03.961Z,280
2023-05-18T14:41:03.916Z,287
2023-05-18T14:46:08.879Z,287
2023-05-18T14:51:03.919Z,287
2023-05-18T15:01:03.878Z,288
2023-05-18T15:06:03.883Z,286
2023-05-18T15:11:03.952Z,289
2023-05-18T15:16:03.926Z,294
2023-05-18T15:21:03.906Z,290
2023-05-18T15:26:03.895Z,287
2023-05-18T15:31:03.899Z,288
2023-05-18T15:36:03.911Z,286
2023-05-18T15:41:03.934Z,283
2023-05-18T15:46:03.909Z,285
2023-05-18T15:51:03.964Z,284
2023-05-18T15:56:03.906Z,282
2023-05-18T16:01:04.035Z,281
2023-05-18T16:06:03.938Z,279
2023-05-18T16:11:03.940Z,276
2023-05-18T16:16:03.939Z,277
2023-05-18T16:21:03.973Z,278
2023-05-18T16:26:03.939Z,279
2023-05-18T16:31:03.972Z,281
2023-05-18T16:36:03.974Z,280
2023-05-18T16:41:03.949Z,282
2023-05-18T16:46:03.961Z,281
2023-05-18T16:51:03.925Z,281
2023-05-18T16:56:03.907Z,281
2023-05-18T17:01:16.032Z,278
2023-05-18T17:06:03.932Z,276
2023-05-18T17:11:04.499Z,276
2023-05-18T17:16:03.953Z,275
2023-05-18T17:21:03.899Z,275
2023-05-18T17:26:07.016Z,274
2023-05-18T17:31:04.062Z,273
2023-05-18T17:36:03.978Z,271
2023-05-18T17:41:03.971Z,269
2023-05-18T17:46:04.252Z,269
2023-05-18T17:51:03.933Z,269
2023-05-18T17:56:04.033Z,267
2023-05-18T18:01:04.023Z,267
2023-05-18T18:06:04.011Z,268
2023-05-18T18:11:04.201Z,266
2023-05-18T18:16:03.946Z,266
2023-05-18T18:21:03.901Z,0
2023-05-18T18:26:03.951Z,265
2023-05-18T18:31:03.939Z,265
2023-05-18T18:36:03.965Z,0
2023-05-18T18:41:03.953Z,0
2023-05-18T18:46:04.062Z,0
2023-05-18T18:51:03.983Z,0
2023-05-18T18:56:03.959Z,0
2023-05-18T19:01:03.924Z,0
2023-05-18T19:06:03.956Z,0
2023-05-18T19:11:03.997Z,0
2023-05-18T19:16:04.588Z,0
2023-05-18T19:21:03.995Z,0
2023-05-18T19:26:03.974Z,0
2023-05-18T19:31:04.028Z,0
2023-05-18T19:36:04.027Z,0
2023-05-18T19:41:03.969Z,0
2023-05-18T19:46:03.979Z,0
2023-05-18T19:51:03.971Z,0
2023-05-18T19:56:03.984Z,0
2023-05-18T20:01:04.046Z,0
2023-05-18T20:06:03.992Z,0
2023-05-18T20:11:04.045Z,0
2023-05-18T20:16:04.038Z,0
2023-05-18T20:21:03.993Z,0
2023-05-18T20:26:03.967Z,0
2023-05-18T20:31:04.007Z,0
2023-05-18T20:36:04.017Z,0
2023-05-18T20:41:03.973Z,0
2023-05-18T20:46:03.991Z,0
2023-05-18T20:51:04.200Z,0
2023-05-18T20:56:04.019Z,0
2023-05-18T21:01:04.157Z,0
2023-05-18T21:06:04.012Z,0
2023-05-18T21:11:03.997Z,0
2023-05-18T21:16:04.003Z,0
2023-05-18T21:21:03.998Z,0
2023-05-18T21:26:04.032Z,0
2023-05-18T21:31:04.063Z,0
2023-05-18T21:36:03.983Z,0
2023-05-18T21:41:04.005Z,0
2023-05-18T21:46:04.012Z,0
2023-05-18T21:51:04.019Z,0
2023-05-18T21:56:04.028Z,0
2023-05-18T22:01:04.076Z,0
2023-05-18T22:06:04.055Z,0
2023-05-18T22:11:04.032Z,0
2023-05-18T22:16:04.005Z,0
2023-05-18T22:21:04.066Z,0
2023-05-18T22:26:04.041Z,0
2023-05-18T22:31:04.028Z,0
2023-05-18T22:36:04.102Z,0
2023-05-18T22:41:03.973Z,0
2023-05-18T22:46:04.003Z,0
2023-05-18T22:51:04.054Z,0
2023-05-18T22:56:04.063Z,0
2023-05-18T23:01:03.997Z,0
2023-05-18T23:06:04.061Z,0
2023-05-18T23:11:04.042Z,0
2023-05-18T23:16:04.020Z,0
2023-05-18T23:21:04.036Z,0
2023-05-18T23:26:04.036Z,0
2023-05-18T23:31:04.065Z,0
2023-05-18T23:36:04.089Z,0
2023-05-18T23:41:04.029Z,0
2023-05-18T23:46:04.001Z,0
2023-05-18T23:51:04.040Z,0
2023-05-18T23:56:04.026Z,0
